Time;durP1;ratioP1;P1;durP2;ratioP2;P2;SDS_P1;SDS_P2;PMS_P1;PMS_P2;Temp;Humidity;BMP_temperature;BMP_pressure;BME280_temperature;BME280_humidity;BME280_pressure;Samples;Min_cycle;Max_cycle;Signal;HPM_P1;HPM_P2
2023/07/28 00:00:21;;;;;;;6.07;4.28;;;461.40;2380.80;;;;;;5074929;28;20386;-69
2023/07/28 00:02:47;;;;;;;8.60;3.78;;;461.20;2380.80;;;;;;5074679;28;20103;-70
2023/07/28 00:05:12;;;;;;;6.55;4.28;;;461.20;2380.80;;;;;;5074432;28;20142;-70
2023/07/28 00:07:38;;;;;;;7.22;3.40;;;461.10;2380.80;;;;;;5085312;28;20036;-72
2023/07/28 00:10:04;;;;;;;6.47;3.90;;;461.00;2380.80;;;;;;5074769;28;20199;-72
2023/07/28 00:12:30;;;;;;;7.28;4.57;;;461.00;2380.80;;;;;;5074681;28;20047;-72
2023/07/28 00:14:56;;;;;;;5.90;3.80;;;461.00;2380.80;;;;;;5074059;28;20425;-71
2023/07/28 00:17:22;;;;;;;7.82;3.92;;;460.80;2380.80;;;;;;5075078;28;20500;-71
2023/07/28 00:19:47;;;;;;;7.22;3.95;;;460.80;2380.80;;;;;;5074537;28;20096;-71
2023/07/28 00:22:13;;;;;;;9.18;3.78;;;460.80;2380.80;;;;;;5074392;28;20029;-71
2023/07/28 00:24:39;;;;;;;5.70;3.70;;;460.80;2380.80;;;;;;5074212;28;20363;-71
2023/07/28 00:27:05;;;;;;;5.78;3.55;;;436.10;2355.20;;;;;;5074139;28;20024;-70
2023/07/28 00:29:31;;;;;;;5.57;3.53;;;435.90;2355.20;;;;;;5074095;28;20020;-72
2023/07/28 00:31:56;;;;;;;7.90;4.68;;;436.10;2355.20;;;;;;5074122;28;20017;-71
2023/07/28 00:34:22;;;;;;;8.73;4.63;;;435.90;2355.20;;;;;;5074119;28;20029;-72
2023/07/28 00:36:48;;;;;;;5.95;4.00;;;435.90;2355.20;;;;;;5073898;28;20123;-71
2023/07/28 00:39:13;;;;;;;8.27;3.78;;;435.90;2355.20;;;;;;5074102;28;20032;-72
2023/07/28 00:41:39;;;;;;;8.85;3.38;;;436.00;2355.20;;;;;;5073982;28;20458;-72
2023/07/28 00:44:05;;;;;;;9.30;3.90;;;436.10;2355.20;;;;;;5072478;28;20024;-70
2023/07/28 00:46:31;;;;;;;5.53;3.78;;;460.80;2380.80;;;;;;5073747;28;20017;-70
2023/07/28 00:48:56;;;;;;;8.32;4.18;;;460.90;2380.80;;;;;;5073663;28;20036;-70
2023/07/28 00:51:22;;;;;;;7.32;3.38;;;461.10;2380.80;;;;;;5073770;28;20025;-71
2023/07/28 00:53:48;;;;;;;8.18;4.47;;;461.20;2380.80;;;;;;5073877;28;20029;-71
2023/07/28 00:56:15;;;;;;;7.05;4.03;;;461.30;2380.80;;;;;;5073683;28;20028;-72
2023/07/28 00:58:40;;;;;;;6.72;4.40;;;461.30;2380.80;;;;;;5073573;28;20035;-71
2023/07/28 01:01:06;;;;;;;6.90;4.07;;;461.20;2380.80;;;;;;5073635;28;20036;-71
2023/07/28 01:03:32;;;;;;;8.50;4.18;;;461.50;2380.80;;;;;;5071975;28;20036;-71
2023/07/28 01:06:10;;;;;;;5.25;3.80;;;461.60;2380.80;;;;;;5072604;28;20036;-71
2023/07/28 01:08:52;;;;;;;6.38;3.88;;;461.70;2380.80;;;;;;5073381;28;20032;-71
2023/07/28 01:11:17;;;;;;;6.13;4.05;;;486.40;2380.80;;;;;;5073234;28;20158;-73
2023/07/28 01:13:43;;;;;;;6.80;4.10;;;486.40;2380.80;;;;;;5073515;28;20508;-71
2023/07/28 01:16:09;;;;;;;8.13;4.40;;;461.60;2380.80;;;;;;5073361;28;20095;-71
2023/07/28 01:18:35;;;;;;;6.95;4.07;;;461.40;2380.80;;;;;;5073177;28;20024;-71
2023/07/28 01:21:03;;;;;;;6.53;4.60;;;461.30;2380.80;;;;;;5073266;28;20099;-72
2023/07/28 01:23:52;;;;;;;8.77;4.78;;;461.20;2380.80;;;;;;5073255;28;20025;-71
2023/07/28 01:26:31;;;;;;;8.18;4.63;;;461.10;2380.80;;;;;;5073206;28;20077;-71
2023/07/28 01:28:57;;;;;;;9.40;5.32;;;460.80;2380.80;;;;;;5073091;28;20040;-71
2023/07/28 01:31:23;;;;;;;9.85;5.75;;;436.10;2355.20;;;;;;5072655;28;20008;-71
2023/07/28 01:33:48;;;;;;;9.30;6.18;;;435.90;2355.20;;;;;;5072893;28;20021;-71
2023/07/28 01:36:14;;;;;;;11.05;5.72;;;435.80;2355.20;;;;;;5072329;28;20593;-72
2023/07/28 01:38:40;;;;;;;8.25;6.10;;;435.90;2355.20;;;;;;5072804;28;20390;-71
2023/07/28 01:41:05;;;;;;;12.30;6.30;;;435.80;2355.20;;;;;;5073331;28;20020;-71
2023/07/28 01:43:31;;;;;;;9.65;6.47;;;435.70;2355.20;;;;;;5073085;28;20540;-73
2023/07/28 01:45:57;;;;;;;9.98;6.35;;;435.80;2355.20;;;;;;5072850;28;20048;-71
2023/07/28 01:48:23;;;;;;;10.65;6.70;;;435.80;2355.20;;;;;;5072958;28;20516;-72
2023/07/28 01:50:48;;;;;;;11.23;6.50;;;435.70;2355.20;;;;;;5072970;28;20020;-71
2023/07/28 01:53:14;;;;;;;12.80;6.47;;;435.60;2355.20;;;;;;5072829;28;20265;-72
2023/07/28 01:55:40;;;;;;;11.68;7.55;;;435.60;2355.20;;;;;;5073044;28;20029;-72
2023/07/28 01:58:05;;;;;;;12.13;7.70;;;435.50;2355.20;;;;;;5072990;28;20466;-71
2023/07/28 02:00:31;;;;;;;13.95;8.85;;;435.30;2355.20;;;;;;5072834;28;20039;-71
2023/07/28 02:02:58;;;;;;;13.77;9.48;;;435.40;2355.20;;;;;;5072914;28;20029;-71
2023/07/28 02:05:24;;;;;;;12.00;8.75;;;435.30;2355.20;;;;;;5072695;28;20028;-71
2023/07/28 02:07:50;;;;;;;16.10;9.38;;;435.40;2355.20;;;;;;5072788;28;20051;-71
2023/07/28 02:10:16;;;;;;;15.45;9.27;;;435.50;2355.20;;;;;;5072625;28;20025;-71
2023/07/28 02:12:42;;;;;;;20.70;10.30;;;435.50;2355.20;;;;;;5072623;28;20056;-71
2023/07/28 02:15:08;;;;;;;13.88;9.70;;;435.60;2355.20;;;;;;5072636;28;20063;-71
2023/07/28 02:17:34;;;;;;;18.23;10.05;;;435.60;2355.20;;;;;;5076167;28;20449;-72
2023/07/28 02:20:01;;;;;;;15.93;10.13;;;435.60;2355.20;;;;;;5076646;28;20056;-70
2023/07/28 02:22:26;;;;;;;20.40;10.88;;;435.60;2355.20;;;;;;5076652;28;20025;-70
2023/07/28 02:24:52;;;;;;;14.05;10.25;;;435.50;2355.20;;;;;;5076376;28;20028;-71
2023/07/28 02:27:18;;;;;;;15.43;9.68;;;435.50;2355.20;;;;;;5076568;28;20074;-70
2023/07/28 02:29:44;;;;;;;14.23;9.27;;;435.50;2355.20;;;;;;5076376;28;20032;-71
2023/07/28 02:32:09;;;;;;;15.77;9.57;;;435.50;2355.20;;;;;;5076547;28;20038;-71
2023/07/28 02:34:35;;;;;;;16.23;10.18;;;435.50;2355.20;;;;;;5075892;28;20111;-71
2023/07/28 02:37:01;;;;;;;13.43;8.93;;;435.50;2355.20;;;;;;5075185;28;20409;-71
2023/07/28 02:39:26;;;;;;;15.93;9.23;;;435.50;2355.20;;;;;;5075732;28;20025;-70
2023/07/28 02:41:52;;;;;;;10.52;8.43;;;435.60;2355.20;;;;;;5075556;28;20112;-71
2023/07/28 02:44:18;;;;;;;17.83;8.85;;;435.60;2355.20;;;;;;5075947;28;20378;-70
2023/07/28 02:46:43;;;;;;;16.17;10.20;;;435.60;2355.20;;;;;;5075135;28;20052;-73
2023/07/28 02:49:09;;;;;;;14.98;9.52;;;435.70;2355.20;;;;;;5075403;28;20036;-71
2023/07/28 02:51:35;;;;;;;14.10;8.80;;;435.80;2355.20;;;;;;5075421;28;20029;-72
2023/07/28 02:54:01;;;;;;;17.88;9.65;;;435.90;2355.20;;;;;;5076025;28;20024;-71
2023/07/28 02:56:26;;;;;;;15.32;10.75;;;435.90;2355.20;;;;;;5075297;28;20025;-71
2023/07/28 02:58:52;;;;;;;16.08;10.07;;;435.90;2355.20;;;;;;5075594;28;20406;-70
2023/07/28 03:01:18;;;;;;;15.40;10.50;;;435.80;2355.20;;;;;;5074775;28;20025;-75
2023/07/28 03:03:44;;;;;;;19.02;9.60;;;435.60;2355.20;;;;;;5075409;28;20040;-71
2023/07/28 03:06:10;;;;;;;15.82;10.02;;;435.50;2355.20;;;;;;5075356;28;20036;-71
2023/07/28 03:08:35;;;;;;;14.43;9.07;;;435.30;2355.20;;;;;;5075242;28;20390;-72
2023/07/28 03:11:04;;;;;;;11.93;9.05;;;410.50;2355.20;;;;;;5074863;28;20043;-70
2023/07/28 03:13:29;;;;;;;15.98;8.73;;;410.50;2355.20;;;;;;5075119;28;20016;-72
2023/07/28 03:15:55;;;;;;;19.80;9.43;;;410.50;2355.20;;;;;;5074730;28;21141;-71
2023/07/28 03:18:21;;;;;;;13.43;8.80;;;435.30;2355.20;;;;;;5075002;28;20028;-71
2023/07/28 03:20:47;;;;;;;11.23;8.48;;;435.30;2355.20;;;;;;5075221;28;20497;-71
2023/07/28 03:23:13;;;;;;;13.38;8.43;;;435.30;2355.20;;;;;;5074961;28;20032;-72
2023/07/28 03:25:39;;;;;;;17.27;8.27;;;435.40;2355.20;;;;;;5074990;28;20031;-71
2023/07/28 03:28:05;;;;;;;12.30;7.85;;;435.40;2355.20;;;;;;5073966;28;20040;-71
2023/07/28 03:30:30;;;;;;;11.57;7.25;;;435.50;2355.20;;;;;;5074345;28;20021;-71
2023/07/28 03:32:56;;;;;;;12.25;7.97;;;435.40;2355.20;;;;;;5074670;28;20111;-70
2023/07/28 03:35:22;;;;;;;10.00;7.40;;;435.40;2355.20;;;;;;5074472;28;20024;-71
2023/07/28 03:37:48;;;;;;;18.52;8.65;;;435.40;2355.20;;;;;;5074367;28;20044;-71
2023/07/28 03:40:14;;;;;;;10.27;7.28;;;435.50;2355.20;;;;;;5074820;28;20067;-71
2023/07/28 03:42:39;;;;;;;13.05;6.40;;;435.40;2355.20;;;;;;5074562;28;20025;-71
2023/07/28 03:45:06;;;;;;;12.25;7.60;;;435.40;2355.20;;;;;;5070012;28;20429;-71
2023/07/28 03:47:31;;;;;;;14.57;6.82;;;435.50;2355.20;;;;;;5074318;28;20032;-70
2023/07/28 03:49:57;;;;;;;12.43;7.25;;;435.50;2355.20;;;;;;5072646;28;20077;-72
2023/07/28 03:52:23;;;;;;;11.50;6.55;;;435.50;2355.20;;;;;;5068074;28;20033;-72
2023/07/28 03:54:48;;;;;;;11.02;7.47;;;435.50;2355.20;;;;;;5072970;28;20031;-71
2023/07/28 03:57:14;;;;;;;12.90;7.10;;;435.50;2355.20;;;;;;5074343;28;20027;-71
2023/07/28 03:59:40;;;;;;;12.45;8.48;;;435.60;2355.20;;;;;;5074104;28;20470;-71
2023/07/28 04:02:05;;;;;;;9.48;6.50;;;435.60;2355.20;;;;;;5074421;28;20024;-71
2023/07/28 04:04:31;;;;;;;12.20;6.85;;;435.50;2355.20;;;;;;5074179;28;20024;-72
2023/07/28 04:06:57;;;;;;;10.02;6.97;;;435.60;2355.20;;;;;;5074323;28;20035;-72
2023/07/28 04:09:23;;;;;;;12.63;7.18;;;435.80;2355.20;;;;;;5073935;28;20044;-71
2023/07/28 04:11:49;;;;;;;10.90;6.78;;;435.90;2355.20;;;;;;5074153;28;20013;-72
2023/07/28 04:14:14;;;;;;;12.77;7.03;;;435.90;2355.20;;;;;;5076665;28;20032;-71
2023/07/28 04:16:40;;;;;;;9.68;6.35;;;436.00;2355.20;;;;;;5080506;28;20024;-72
2023/07/28 04:19:06;;;;;;;13.80;7.38;;;436.00;2355.20;;;;;;5075361;28;20115;-70
2023/07/28 04:21:32;;;;;;;10.07;6.43;;;436.00;2355.20;;;;;;5076619;28;20028;-70
2023/07/28 04:23:57;;;;;;;9.20;6.53;;;436.10;2355.20;;;;;;5090918;28;20032;-71
2023/07/28 04:26:26;;;;;;;10.73;7.00;;;436.00;2355.20;;;;;;5074133;28;20025;-71
2023/07/28 04:28:52;;;;;;;10.48;6.20;;;436.00;2355.20;;;;;;5075644;28;20064;-72
2023/07/28 04:31:18;;;;;;;11.27;6.28;;;435.90;2355.20;;;;;;5078985;28;20559;-71
2023/07/28 04:33:43;;;;;;;9.02;6.55;;;435.80;2355.20;;;;;;5076339;28;20025;-70
2023/07/28 04:36:09;;;;;;;13.68;6.75;;;435.80;2355.20;;;;;;5078033;28;20583;-71
2023/07/28 04:38:35;;;;;;;10.48;7.00;;;435.90;2355.20;;;;;;5078331;28;20397;-71
2023/07/28 04:41:01;;;;;;;14.00;6.55;;;436.10;2355.20;;;;;;5078677;28;20496;-70
2023/07/28 04:43:27;;;;;;;12.48;6.72;;;435.90;2355.20;;;;;;5078570;28;20063;-72
2023/07/28 04:45:53;;;;;;;14.52;6.38;;;436.10;2355.20;;;;;;5076792;28;20036;-72
2023/07/28 04:48:19;;;;;;;11.13;6.70;;;435.90;2355.20;;;;;;5074755;28;20082;-71
2023/07/28 04:50:45;;;;;;;11.98;7.05;;;435.90;2355.20;;;;;;5082812;28;20475;-71
2023/07/28 04:53:10;;;;;;;10.57;7.32;;;435.90;2355.20;;;;;;5075918;28;20036;-70
2023/07/28 04:55:36;;;;;;;12.55;7.07;;;435.90;2355.20;;;;;;5081986;28;20029;-71
2023/07/28 04:58:02;;;;;;;11.18;6.25;;;435.80;2355.20;;;;;;5078850;28;20474;-70
2023/07/28 05:00:28;;;;;;;9.73;6.50;;;435.90;2355.20;;;;;;5079642;28;20478;-70
2023/07/28 05:02:54;;;;;;;15.38;8.73;;;435.90;2355.20;;;;;;5086573;28;20028;-71
2023/07/28 05:05:20;;;;;;;9.65;6.85;;;436.10;2355.20;;;;;;5078074;28;20021;-71
2023/07/28 05:07:45;;;;;;;13.35;6.85;;;436.00;2355.20;;;;;;5076994;28;20040;-69
2023/07/28 05:10:11;;;;;;;12.23;7.30;;;436.10;2355.20;;;;;;5078412;28;20035;-70
2023/07/28 05:12:37;;;;;;;12.07;7.25;;;460.80;2380.80;;;;;;5084426;28;20070;-70
2023/07/28 05:15:03;;;;;;;13.82;7.55;;;460.90;2380.80;;;;;;5075753;28;20035;-70
2023/07/28 05:17:28;;;;;;;11.45;6.78;;;461.10;2380.80;;;;;;5079101;28;20039;-69
2023/07/28 05:19:54;;;;;;;11.73;7.35;;;460.90;2380.80;;;;;;5078518;28;20486;-71
2023/07/28 05:22:19;;;;;;;10.07;7.13;;;461.10;2380.80;;;;;;5082333;28;20433;-70
2023/07/28 05:24:45;;;;;;;11.50;7.28;;;461.20;2380.80;;;;;;5081827;28;20127;-70
2023/07/28 05:27:12;;;;;;;10.52;6.90;;;461.30;2380.80;;;;;;5078448;28;20478;-71
2023/07/28 05:29:38;;;;;;;10.73;7.20;;;461.30;2380.80;;;;;;5081060;28;20040;-71
2023/07/28 05:32:04;;;;;;;11.13;6.65;;;461.40;2380.80;;;;;;5081302;28;20039;-70
2023/07/28 05:34:30;;;;;;;13.43;7.05;;;461.50;2380.80;;;;;;5077190;28;20133;-72
2023/07/28 05:36:56;;;;;;;9.45;6.10;;;461.50;2380.80;;;;;;5074692;28;20059;-70
2023/07/28 05:39:21;;;;;;;9.15;5.68;;;461.70;2380.80;;;;;;5086082;28;20036;-71
2023/07/28 05:41:47;;;;;;;10.65;6.30;;;486.40;2380.80;;;;;;5078624;28;20028;-73
2023/07/28 05:44:13;;;;;;;8.85;5.47;;;486.50;2380.80;;;;;;5078380;28;20028;-71
2023/07/28 05:46:39;;;;;;;9.82;6.75;;;486.50;2380.80;;;;;;5084410;28;20395;-71
2023/07/28 05:49:05;;;;;;;11.25;7.25;;;486.70;2380.80;;;;;;5082909;28;20536;-72
2023/07/28 05:51:30;;;;;;;15.10;6.50;;;486.80;2380.80;;;;;;5077792;28;20028;-71
2023/07/28 05:53:56;;;;;;;11.75;6.10;;;486.90;2380.80;;;;;;5083567;28;20146;-70
2023/07/28 05:56:22;;;;;;;8.45;6.70;;;487.10;2380.80;;;;;;5075991;28;20056;-70
2023/07/28 05:58:49;;;;;;;9.55;4.47;;;487.20;2380.80;;;;;;5078398;28;20115;-70
2023/07/28 06:01:14;;;;;;;7.82;4.65;;;487.20;2380.80;;;;;;5083414;28;20067;-71
2023/07/28 06:03:40;;;;;;;7.28;5.75;;;487.20;2380.80;;;;;;5077487;28;20086;-71
2023/07/28 06:06:07;;;;;;;7.65;4.50;;;487.30;2380.80;;;;;;5078600;28;20028;-72
2023/07/28 06:08:32;;;;;;;7.38;4.80;;;512.10;2380.80;;;;;;5078622;28;20067;-69
2023/07/28 06:10:58;;;;;;;9.13;4.38;;;512.20;2380.80;;;;;;5077406;28;20058;-72
2023/07/28 06:13:24;;;;;;;8.77;4.18;;;512.30;2380.80;;;;;;5079054;28;20413;-70
2023/07/28 06:15:50;;;;;;;11.20;4.82;;;512.50;2380.80;;;;;;5075500;28;20043;-70
2023/07/28 06:18:16;;;;;;;6.57;4.22;;;512.70;2380.80;;;;;;5081236;28;20508;-70
2023/07/28 06:20:45;;;;;;;6.03;4.18;;;512.90;2380.80;;;;;;5077824;28;20020;-71
2023/07/28 06:23:11;;;;;;;8.70;4.55;;;512.90;2380.80;;;;;;5073305;28;20103;-71
2023/07/28 06:25:42;;;;;;;7.13;3.80;;;537.70;2406.40;;;;;;5081679;28;20111;-71
2023/07/28 06:28:08;;;;;;;9.35;4.50;;;537.80;2406.40;;;;;;5074973;28;20035;-71
2023/07/28 06:30:33;;;;;;;5.25;3.88;;;537.90;2406.40;;;;;;5079704;28;20028;-70
2023/07/28 06:32:59;;;;;;;6.68;3.70;;;538.00;2406.40;;;;;;5072324;28;20017;-71
2023/07/28 06:35:25;;;;;;;7.20;4.00;;;538.20;2406.40;;;;;;5075883;28;20425;-72
2023/07/28 06:37:50;;;;;;;6.72;3.88;;;538.40;2406.40;;;;;;5080038;28;20494;-74
2023/07/28 06:40:16;;;;;;;7.03;3.60;;;538.40;2406.40;;;;;;5081131;28;20100;-72
2023/07/28 06:42:42;;;;;;;7.68;3.92;;;538.50;2406.40;;;;;;5076869;28;20023;-71
2023/07/28 06:45:08;;;;;;;4.82;3.65;;;563.40;2432.00;;;;;;5084790;28;20438;-72
2023/07/28 06:47:34;;;;;;;10.40;4.43;;;563.60;2432.00;;;;;;5079568;28;20035;-71
2023/07/28 06:49:59;;;;;;;5.88;3.63;;;563.80;2432.00;;;;;;5080288;28;20025;-70
2023/07/28 06:52:25;;;;;;;5.50;2.97;;;563.90;2432.00;;;;;;5077715;28;20024;-71
2023/07/28 06:54:51;;;;;;;5.60;3.15;;;563.90;2432.00;;;;;;5077085;28;20039;-72
2023/07/28 06:57:17;;;;;;;5.82;3.15;;;564.00;2432.00;;;;;;5084266;28;20016;-73
2023/07/28 06:59:42;;;;;;;4.85;2.78;;;564.10;2432.00;;;;;;5077923;28;20028;-73
2023/07/28 07:02:09;;;;;;;6.50;2.92;;;564.10;2432.00;;;;;;5077583;28;20028;-72
2023/07/28 07:04:35;;;;;;;6.82;3.85;;;589.00;2432.00;;;;;;5081291;28;20073;-71
2023/07/28 07:07:02;;;;;;;5.38;3.15;;;589.10;2432.00;;;;;;5084087;28;20028;-72
2023/07/28 07:09:28;;;;;;;5.45;3.17;;;589.10;2380.80;;;;;;5086160;28;20548;-70
2023/07/28 07:11:54;;;;;;;8.73;2.90;;;589.20;2355.20;;;;;;5075689;28;20122;-70
2023/07/28 07:14:19;;;;;;;7.80;3.47;;;589.40;2355.20;;;;;;5080481;28;20063;-70
2023/07/28 07:16:45;;;;;;;5.18;3.17;;;589.70;2406.40;;;;;;5078567;28;20056;-71
2023/07/28 07:19:11;;;;;;;7.35;3.85;;;614.40;2380.80;;;;;;5079043;28;20043;-70
2023/07/28 07:21:37;;;;;;;3.78;2.97;;;614.50;2252.80;;;;;;5075837;28;20031;-76
2023/07/28 07:24:04;;;;;;;4.00;2.78;;;614.70;2227.20;;;;;;5084713;28;20031;-72
2023/07/28 07:26:31;;;;;;;8.48;3.35;;;614.80;2150.40;;;;;;5077925;28;20013;-71
2023/07/28 07:28:57;;;;;;;7.38;3.20;;;614.70;2124.80;;;;;;5081744;28;20040;-71
2023/07/28 07:31:23;;;;;;;4.20;2.70;;;614.80;2124.80;;;;;;5087358;28;20039;-71
2023/07/28 07:33:49;;;;;;;4.13;2.70;;;615.20;2073.60;;;;;;5076990;28;20028;-75
2023/07/28 07:36:17;;;;;;;5.68;2.65;;;640.20;2022.40;;;;;;5081242;28;20477;-70
2023/07/28 07:38:45;;;;;;;4.18;2.53;;;640.10;1971.20;;;;;;5072921;28;20047;-72
2023/07/28 07:41:12;;;;;;;5.13;2.65;;;640.20;1920.00;;;;;;5078112;28;20078;-72
2023/07/28 07:43:39;;;;;;;10.00;3.20;;;640.40;1945.60;;;;;;5084034;28;20021;-76
2023/07/28 07:46:04;;;;;;;4.25;3.03;;;640.60;1945.60;;;;;;5079688;28;20032;-74
2023/07/28 07:48:30;;;;;;;6.80;3.40;;;640.80;1920.00;;;;;;5083767;28;20497;-73
2023/07/28 07:50:56;;;;;;;8.77;3.42;;;665.60;1817.60;;;;;;5081267;28;20031;-75
2023/07/28 07:53:22;;;;;;;9.23;2.97;;;665.70;1868.80;;;;;;5081443;28;20029;-74
2023/07/28 07:55:48;;;;;;;8.30;3.83;;;665.80;1894.40;;;;;;5084793;28;20402;-73
2023/07/28 07:58:14;;;;;;;5.35;3.03;;;665.80;1843.20;;;;;;5079894;28;20028;-74
2023/07/28 08:00:40;;;;;;;6.38;3.50;;;665.70;1817.60;;;;;;5083884;28;20488;-73
2023/07/28 08:03:06;;;;;;;6.32;2.80;;;665.90;1817.60;;;;;;5080380;28;20037;-71
2023/07/28 08:05:31;;;;;;;5.40;2.55;;;666.00;1817.60;;;;;;5078563;28;20023;-72
2023/07/28 08:07:57;;;;;;;4.45;3.33;;;666.10;1740.80;;;;;;5077502;28;20040;-71
2023/07/28 08:10:23;;;;;;;4.97;2.33;;;666.20;1766.40;;;;;;5076170;28;20109;-77
2023/07/28 08:12:49;;;;;;;5.47;2.72;;;666.30;1689.60;;;;;;5078592;28;20021;-75
2023/07/28 08:15:15;;;;;;;6.03;3.50;;;666.30;1689.60;;;;;;5085105;28;20099;-72
2023/07/28 08:17:40;;;;;;;5.55;3.22;;;666.40;1740.80;;;;;;5085411;28;20056;-75
2023/07/28 08:20:09;;;;;;;6.30;3.20;;;691.30;1766.40;;;;;;5079587;28;20111;-75
2023/07/28 08:22:35;;;;;;;7.00;3.08;;;691.50;1740.80;;;;;;5076633;28;20382;-73
2023/07/28 08:25:00;;;;;;;5.05;2.75;;;691.50;1638.40;;;;;;5084856;28;20028;-73
2023/07/28 08:27:26;;;;;;;5.93;2.67;;;691.80;1715.20;;;;;;5087490;28;20024;-73
2023/07/28 08:29:52;;;;;;;4.85;2.55;;;691.70;1612.80;;;;;;5082649;28;20097;-73
2023/07/28 08:32:17;;;;;;;4.18;2.33;;;691.90;1561.60;;;;;;5079436;28;20028;-73
2023/07/28 08:34:43;;;;;;;5.95;2.85;;;692.10;1587.20;;;;;;5077199;28;20119;-72
2023/07/28 08:37:09;;;;;;;6.28;3.33;;;;;;;;;;5077896;28;20090;-74
2023/07/28 08:39:35;;;;;;;7.03;3.25;;;717.10;1612.80;;;;;;5086082;28;20131;-73
2023/07/28 08:42:02;;;;;;;4.60;2.72;;;717.20;1638.40;;;;;;5075055;28;20486;-72
2023/07/28 08:44:32;;;;;;;4.18;2.90;;;717.40;1561.60;;;;;;5086760;28;20028;-73
2023/07/28 08:47:03;;;;;;;5.05;3.15;;;717.20;1561.60;;;;;;5079191;28;20059;-73
2023/07/28 08:49:31;;;;;;;13.27;2.90;;;717.40;1587.20;;;;;;5070418;28;20078;-73
2023/07/28 08:51:59;;;;;;;4.72;3.53;;;717.40;1612.80;;;;;;5082149;28;20070;-72
2023/07/28 08:54:25;;;;;;;7.15;2.35;;;717.50;1612.80;;;;;;5076530;28;20130;-74
2023/07/28 08:56:50;;;;;;;4.82;2.90;;;717.40;1561.60;;;;;;5090894;28;20100;-73
2023/07/28 08:59:25;;;;;;;7.40;2.92;;;717.60;1510.40;;;;;;5082467;28;20024;-72
2023/07/28 09:01:55;;;;;;;4.20;2.40;;;717.70;1484.80;;;;;;5077997;28;20024;-73
2023/07/28 09:04:24;;;;;;;5.53;2.70;;;742.50;1484.80;;;;;;5079370;28;20309;-73
2023/07/28 09:06:51;;;;;;;5.80;2.63;;;;;;;;;;5075553;28;20481;-74
2023/07/28 09:09:18;;;;;;;5.32;2.92;;;;;;;;;;5077910;28;20084;-73
2023/07/28 09:11:51;;;;;;;4.72;2.42;;;742.90;1484.80;;;;;;5081911;28;20095;-72
2023/07/28 09:14:19;;;;;;;3.40;2.30;;;742.90;1484.80;;;;;;5080545;28;20401;-73
2023/07/28 09:16:45;;;;;;;4.40;2.75;;;742.70;1510.40;;;;;;5083142;28;20496;-74
2023/07/28 09:19:11;;;;;;;3.67;2.33;;;743.00;1433.60;;;;;;5082926;28;20024;-73
2023/07/28 09:21:43;;;;;;;3.28;2.55;;;743.20;1484.80;;;;;;5079294;28;20062;-72
2023/07/28 09:24:13;;;;;;;5.97;2.42;;;743.10;1408.00;;;;;;5073924;28;20040;-72
2023/07/28 09:26:44;;;;;;;4.93;2.50;;;742.90;1408.00;;;;;;5089909;28;20393;-73
2023/07/28 09:29:15;;;;;;;5.65;2.72;;;;;;;;;;5084870;28;20036;-73
2023/07/28 09:31:41;;;;;;;6.10;2.17;;;768.40;1382.40;;;;;;5079491;28;20040;-74
2023/07/28 09:34:08;;;;;;;8.07;2.88;;;;;;;;;;5079109;28;20428;-73
2023/07/28 09:36:35;;;;;;;4.50;2.45;;;;;;;;;;5078112;28;20524;-72
2023/07/28 09:39:02;;;;;;;5.13;2.80;;;768.70;1331.20;;;;;;5082415;28;20424;-72
2023/07/28 09:41:30;;;;;;;9.32;3.65;;;768.80;1331.20;;;;;;5081073;28;20082;-72
2023/07/28 09:43:57;;;;;;;5.88;3.00;;;768.40;1382.40;;;;;;5077963;28;20040;-72
2023/07/28 09:46:24;;;;;;;8.13;2.50;;;768.40;1356.80;;;;;;5078228;28;20027;-73
2023/07/28 09:48:55;;;;;;;5.60;2.70;;;768.40;1331.20;;;;;;5079608;28;20040;-73
2023/07/28 09:51:22;;;;;;;5.93;2.78;;;768.60;1305.60;;;;;;5078583;28;20021;-74
2023/07/28 09:54:05;;;;;;;3.15;2.17;;;768.40;1305.60;;;;;;5074148;28;20069;-72
2023/07/28 09:56:31;;;;;;;3.67;2.38;;;768.60;1254.40;;;;;;5070836;28;20019;-72
2023/07/28 09:58:59;;;;;;;4.47;2.55;;;768.90;1280.00;;;;;;5086403;28;20468;-74
2023/07/28 10:01:25;;;;;;;4.63;2.58;;;793.70;1254.40;;;;;;5078196;28;20024;-72
2023/07/28 10:03:51;;;;;;;5.28;3.17;;;768.90;1228.80;;;;;;5069423;28;20494;-72
2023/07/28 10:06:18;;;;;;;4.13;2.60;;;793.80;1254.40;;;;;;5074425;28;20063;-73
2023/07/28 10:08:45;;;;;;;8.32;2.72;;;793.70;1280.00;;;;;;5078921;28;20041;-72
2023/07/28 10:11:16;;;;;;;3.55;2.60;;;793.70;1280.00;;;;;;5081589;28;20024;-74
2023/07/28 10:13:44;;;;;;;4.05;2.30;;;793.60;1280.00;;;;;;5079339;28;20058;-73
2023/07/28 10:16:10;;;;;;;7.60;3.00;;;793.60;1228.80;;;;;;5083509;28;20027;-72
2023/07/28 10:18:37;;;;;;;3.90;2.65;;;794.00;1228.80;;;;;;5076421;28;20036;-72
2023/07/28 10:21:09;;;;;;;5.47;2.40;;;794.00;1203.20;;;;;;5080218;28;20115;-72
2023/07/28 10:23:38;;;;;;;4.68;2.45;;;794.10;1100.80;;;;;;5082062;28;20031;-73
2023/07/28 10:26:07;;;;;;;5.50;2.58;;;794.10;1177.60;;;;;;5084159;28;20062;-73
2023/07/28 10:28:41;;;;;;;3.88;2.30;;;794.20;1152.00;;;;;;5082262;28;20135;-73
2023/07/28 10:31:10;;;;;;;4.47;2.65;;;819.40;1100.80;;;;;;5086183;28;20020;-74
2023/07/28 10:33:43;;;;;;;4.07;2.55;;;819.30;1152.00;;;;;;5082064;28;20040;-72
2023/07/28 10:36:31;;;;;;;5.13;2.78;;;819.30;1126.40;;;;;;5077814;28;20416;-73
2023/07/28 10:39:11;;;;;;;6.53;2.65;;;819.30;1100.80;;;;;;5079693;28;20506;-73
2023/07/28 10:41:37;;;;;;;8.20;2.92;;;794.40;1126.40;;;;;;5087647;28;20070;-73
2023/07/28 10:44:03;;;;;;;3.40;2.38;;;794.50;1126.40;;;;;;5081525;28;20029;-73
2023/07/28 10:46:29;;;;;;;4.53;2.40;;;819.40;1126.40;;;;;;5090669;28;20036;-74
2023/07/28 10:48:55;;;;;;;5.88;2.55;;;794.40;1126.40;;;;;;5082276;28;20094;-73
2023/07/28 10:51:25;;;;;;;3.20;2.20;;;;;;;;;;5085230;28;20020;-74
2023/07/28 10:53:55;;;;;;;3.42;2.25;;;819.70;1126.40;;;;;;5082693;28;20078;-73
2023/07/28 10:56:22;;;;;;;4.70;2.72;;;819.60;1075.20;;;;;;5080616;28;20016;-74
2023/07/28 10:58:59;;;;;;;4.50;2.47;;;819.80;1049.60;;;;;;5081245;28;20107;-72
2023/07/28 11:01:35;;;;;;;4.72;2.72;;;819.90;1049.60;;;;;;5080976;28;20073;-72
2023/07/28 11:04:17;;;;;;;6.43;3.00;;;819.70;1100.80;;;;;;5085218;28;20392;-73
2023/07/28 11:06:50;;;;;;;4.28;2.78;;;820.10;1126.40;;;;;;5079276;28;20032;-72
2023/07/28 11:09:18;;;;;;;7.95;2.67;;;820.10;1075.20;;;;;;5081857;28;20559;-73
2023/07/28 11:11:45;;;;;;;10.45;5.65;;;844.90;1075.20;;;;;;5075386;28;20179;-73
2023/07/28 11:14:11;;;;;;;32.05;19.25;;;844.90;1075.20;;;;;;5079782;28;20047;-72
2023/07/28 11:16:41;;;;;;;6.53;3.80;;;845.00;1075.20;;;;;;5084034;28;20545;-73
2023/07/28 11:19:16;;;;;;;4.57;2.53;;;820.10;1075.20;;;;;;5083601;28;20107;-73
2023/07/28 11:21:42;;;;;;;5.40;2.72;;;844.90;1049.60;;;;;;5083178;28;20645;-73
2023/07/28 11:24:17;;;;;;;4.22;2.45;;;819.90;1049.60;;;;;;5082983;28;20490;-74
2023/07/28 11:26:45;;;;;;;3.40;2.42;;;819.90;1049.60;;;;;;5085826;28;20047;-74
2023/07/28 11:29:12;;;;;;;4.00;2.50;;;844.90;1100.80;;;;;;5082688;28;20366;-72
2023/07/28 11:31:37;;;;;;;5.28;2.65;;;844.90;1126.40;;;;;;5088724;28;20020;-74
2023/07/28 11:34:12;;;;;;;3.55;2.40;;;820.10;1100.80;;;;;;5080587;28;20497;-73
2023/07/28 11:36:37;;;;;;;3.58;2.15;;;819.60;1126.40;;;;;;5074088;28;20048;-72
2023/07/28 11:39:05;;;;;;;5.45;2.70;;;819.40;1126.40;;;;;;5084679;28;20044;-73
2023/07/28 11:41:32;;;;;;;5.38;2.53;;;819.80;1100.80;;;;;;5083740;28;20119;-73
2023/07/28 11:43:58;;;;;;;3.33;2.33;;;819.70;1126.40;;;;;;5082135;28;20989;-72
2023/07/28 11:46:39;;;;;;;3.28;2.50;;;820.10;1126.40;;;;;;5082063;28;20028;-72
2023/07/28 11:49:13;;;;;;;4.00;2.33;;;819.80;1100.80;;;;;;5083436;28;20035;-71
2023/07/28 11:51:43;;;;;;;4.70;2.28;;;820.10;1100.80;;;;;;5081972;28;20099;-72
2023/07/28 11:54:11;;;;;;;7.93;2.55;;;819.80;1126.40;;;;;;5071747;28;20032;-73
2023/07/28 11:56:37;;;;;;;4.00;2.35;;;819.80;1126.40;;;;;;5075817;28;20356;-72
2023/07/28 11:59:04;;;;;;;5.07;2.63;;;820.10;1126.40;;;;;;5078528;28;20112;-74
2023/07/28 12:01:29;;;;;;;4.57;2.47;;;819.80;1126.40;;;;;;5079931;28;20386;-72
2023/07/28 12:03:55;;;;;;;8.68;2.72;;;820.10;1152.00;;;;;;5084063;28;20024;-73
2023/07/28 12:06:21;;;;;;;5.93;2.70;;;819.90;1126.40;;;;;;5081024;28;20035;-72
2023/07/28 12:08:47;;;;;;;11.35;2.92;;;;;;;;;;5084477;28;20553;-72
2023/07/28 12:11:14;;;;;;;6.22;2.97;;;845.20;1177.60;;;;;;5082800;28;20023;-72
2023/07/28 12:13:50;;;;;;;4.80;2.60;;;820.10;1100.80;;;;;;5080024;28;20028;-72
2023/07/28 12:16:38;;;;;;;4.03;2.13;;;844.90;1152.00;;;;;;5072871;28;20039;-72